sensor_id;sensor_type;location;lat;lon;timestamp;P1;durP1;ratioP1;P2;durP2;ratioP2
45940;SDS011;31858;46.008;8.978;2023-11-21T00:09:39;55.53;;;40.05;;
45940;SDS011;31858;46.008;8.978;2023-11-21T00:19:42;53.00;;;39.20;;
45940;SDS011;31858;46.008;8.978;2023-11-21T00:29:44;50.53;;;40.00;;
45940;SDS011;31858;46.008;8.978;2023-11-21T00:39:47;63.00;;;39.42;;
45940;SDS011;31858;46.008;8.978;2023-11-21T00:49:48;64.22;;;41.50;;
45940;SDS011;31858;46.008;8.978;2023-11-21T00:59:51;56.75;;;41.28;;
45940;SDS011;31858;46.008;8.978;2023-11-21T01:09:53;64.90;;;41.38;;
45940;SDS011;31858;46.008;8.978;2023-11-21T01:19:57;50.80;;;38.63;;
45940;SDS011;31858;46.008;8.978;2023-11-21T01:29:59;51.95;;;39.67;;
45940;SDS011;31858;46.008;8.978;2023-11-21T01:40:02;55.33;;;40.60;;
45940;SDS011;31858;46.008;8.978;2023-11-21T01:50:08;42.83;;;32.78;;
45940;SDS011;31858;46.008;8.978;2023-11-21T02:00:16;42.00;;;32.60;;
45940;SDS011;31858;46.008;8.978;2023-11-21T02:10:19;49.88;;;36.05;;
45940;SDS011;31858;46.008;8.978;2023-11-21T02:20:24;35.05;;;25.52;;
45940;SDS011;31858;46.008;8.978;2023-11-21T02:30:27;33.47;;;25.70;;
45940;SDS011;31858;46.008;8.978;2023-11-21T02:40:31;37.22;;;28.23;;
45940;SDS011;31858;46.008;8.978;2023-11-21T02:50:34;42.70;;;32.75;;
45940;SDS011;31858;46.008;8.978;2023-11-21T03:00:37;52.67;;;39.40;;
45940;SDS011;31858;46.008;8.978;2023-11-21T03:10:41;50.67;;;36.50;;
45940;SDS011;31858;46.008;8.978;2023-11-21T03:20:43;48.58;;;35.13;;
45940;SDS011;31858;46.008;8.978;2023-11-21T03:30:47;52.03;;;35.03;;
45940;SDS011;31858;46.008;8.978;2023-11-21T03:40:49;49.22;;;34.25;;
45940;SDS011;31858;46.008;8.978;2023-11-21T03:50:52;51.58;;;33.70;;
45940;SDS011;31858;46.008;8.978;2023-11-21T04:00:53;55.83;;;35.95;;
45940;SDS011;31858;46.008;8.978;2023-11-21T04:10:56;50.13;;;33.38;;
45940;SDS011;31858;46.008;8.978;2023-11-21T04:20:58;45.95;;;31.45;;
45940;SDS011;31858;46.008;8.978;2023-11-21T04:31:01;45.72;;;31.92;;
45940;SDS011;31858;46.008;8.978;2023-11-21T04:41:03;48.63;;;33.60;;
45940;SDS011;31858;46.008;8.978;2023-11-21T04:51:06;53.33;;;34.22;;
45940;SDS011;31858;46.008;8.978;2023-11-21T05:01:08;52.25;;;34.63;;
45940;SDS011;31858;46.008;8.978;2023-11-21T05:11:11;55.20;;;34.20;;
45940;SDS011;31858;46.008;8.978;2023-11-21T05:21:12;58.78;;;36.67;;
45940;SDS011;31858;46.008;8.978;2023-11-21T05:31:16;57.97;;;37.10;;
45940;SDS011;31858;46.008;8.978;2023-11-21T05:41:19;56.47;;;35.03;;
45940;SDS011;31858;46.008;8.978;2023-11-21T05:51:22;55.50;;;35.75;;
45940;SDS011;31858;46.008;8.978;2023-11-21T06:01:25;51.03;;;35.55;;
45940;SDS011;31858;46.008;8.978;2023-11-21T06:11:29;51.05;;;34.47;;
45940;SDS011;31858;46.008;8.978;2023-11-21T06:21:31;51.97;;;35.03;;
45940;SDS011;31858;46.008;8.978;2023-11-21T06:31:35;55.83;;;35.10;;
45940;SDS011;31858;46.008;8.978;2023-11-21T06:41:36;55.22;;;35.03;;
45940;SDS011;31858;46.008;8.978;2023-11-21T06:51:40;66.82;;;39.88;;
45940;SDS011;31858;46.008;8.978;2023-11-21T07:01:42;53.58;;;34.65;;
45940;SDS011;31858;46.008;8.978;2023-11-21T07:11:45;50.33;;;32.72;;
45940;SDS011;31858;46.008;8.978;2023-11-21T07:21:48;34.97;;;23.40;;
45940;SDS011;31858;46.008;8.978;2023-11-21T07:31:52;40.80;;;25.20;;
45940;SDS011;31858;46.008;8.978;2023-11-21T07:41:55;44.35;;;27.77;;
45940;SDS011;31858;46.008;8.978;2023-11-21T07:51:59;35.53;;;23.08;;
45940;SDS011;31858;46.008;8.978;2023-11-21T08:02:00;27.30;;;17.05;;
45940;SDS011;31858;46.008;8.978;2023-11-21T08:12:04;17.40;;;9.20;;
45940;SDS011;31858;46.008;8.978;2023-11-21T08:22:06;7.10;;;5.28;;
45940;SDS011;31858;46.008;8.978;2023-11-21T08:32:09;18.92;;;12.63;;
45940;SDS011;31858;46.008;8.978;2023-11-21T08:42:11;2.90;;;2.40;;
45940;SDS011;31858;46.008;8.978;2023-11-21T08:52:14;4.15;;;3.30;;
45940;SDS011;31858;46.008;8.978;2023-11-21T09:02:16;19.83;;;13.30;;
45940;SDS011;31858;46.008;8.978;2023-11-21T09:12:19;23.77;;;17.00;;
45940;SDS011;31858;46.008;8.978;2023-11-21T09:22:21;22.98;;;14.40;;
45940;SDS011;31858;46.008;8.978;2023-11-21T09:32:26;33.60;;;21.55;;
45940;SDS011;31858;46.008;8.978;2023-11-21T09:42:29;16.85;;;11.52;;
45940;SDS011;31858;46.008;8.978;2023-11-21T09:52:37;5.07;;;2.95;;
45940;SDS011;31858;46.008;8.978;2023-11-21T10:02:48;10.98;;;5.68;;
45940;SDS011;31858;46.008;8.978;2023-11-21T10:12:53;28.90;;;17.88;;
45940;SDS011;31858;46.008;8.978;2023-11-21T10:22:56;22.10;;;16.80;;
45940;SDS011;31858;46.008;8.978;2023-11-21T10:32:59;17.10;;;13.82;;
45940;SDS011;31858;46.008;8.978;2023-11-21T10:43:05;12.63;;;8.57;;
45940;SDS011;31858;46.008;8.978;2023-11-21T10:53:11;20.35;;;15.10;;
45940;SDS011;31858;46.008;8.978;2023-11-21T11:03:13;17.48;;;14.00;;
45940;SDS011;31858;46.008;8.978;2023-11-21T11:13:16;9.65;;;7.45;;
45940;SDS011;31858;46.008;8.978;2023-11-21T11:23:24;7.78;;;6.97;;
45940;SDS011;31858;46.008;8.978;2023-11-21T11:33:41;5.57;;;4.13;;
45940;SDS011;31858;46.008;8.978;2023-11-21T11:43:45;5.57;;;4.28;;
45940;SDS011;31858;46.008;8.978;2023-11-21T11:53:48;5.63;;;3.10;;
45940;SDS011;31858;46.008;8.978;2023-11-21T12:14:32;3.25;;;2.83;;
45940;SDS011;31858;46.008;8.978;2023-11-21T12:24:34;2.25;;;1.95;;
45940;SDS011;31858;46.008;8.978;2023-11-21T12:34:37;2.53;;;1.70;;
45940;SDS011;31858;46.008;8.978;2023-11-21T12:44:39;0.55;;;0.30;;
45940;SDS011;31858;46.008;8.978;2023-11-21T12:54:43;0.32;;;0.30;;
45940;SDS011;31858;46.008;8.978;2023-11-21T13:04:51;0.13;;;0.10;;
45940;SDS011;31858;46.008;8.978;2023-11-21T13:14:54;0.10;;;0.10;;
45940;SDS011;31858;46.008;8.978;2023-11-21T13:24:56;0.22;;;0.22;;
45940;SDS011;31858;46.008;8.978;2023-11-21T13:34:59;0.10;;;0.10;;
45940;SDS011;31858;46.008;8.978;2023-11-21T13:45:01;0.10;;;0.10;;
45940;SDS011;31858;46.008;8.978;2023-11-21T13:55:04;0.22;;;0.20;;
45940;SDS011;31858;46.008;8.978;2023-11-21T14:05:14;0.13;;;0.03;;
45940;SDS011;31858;46.008;8.978;2023-11-21T14:15:22;0.20;;;0.20;;
45940;SDS011;31858;46.008;8.978;2023-11-21T14:25:24;0.10;;;0.10;;
45940;SDS011;31858;46.008;8.978;2023-11-21T14:35:28;0.20;;;0.20;;
45940;SDS011;31858;46.008;8.978;2023-11-21T14:45:32;0.10;;;0.10;;
45940;SDS011;31858;46.008;8.978;2023-11-21T14:55:35;0.22;;;0.22;;
45940;SDS011;31858;46.008;8.978;2023-11-21T15:05:52;0.70;;;0.10;;
45940;SDS011;31858;46.008;8.978;2023-11-21T15:15:55;0.20;;;0.10;;
45940;SDS011;31858;46.008;8.978;2023-11-21T15:26:00;0.20;;;0.20;;
45940;SDS011;31858;46.008;8.978;2023-11-21T15:36:05;0.10;;;0.10;;
45940;SDS011;31858;46.008;8.978;2023-11-21T15:46:10;0.05;;;0.05;;
45940;SDS011;31858;46.008;8.978;2023-11-21T15:56:13;0.10;;;0.10;;
45940;SDS011;31858;46.008;8.978;2023-11-21T16:06:15;0.10;;;0.10;;
45940;SDS011;31858;46.008;8.978;2023-11-21T16:16:21;0.22;;;0.20;;
45940;SDS011;31858;46.008;8.978;2023-11-21T16:26:23;1.50;;;1.40;;
45940;SDS011;31858;46.008;8.978;2023-11-21T16:36:26;12.27;;;8.95;;
45940;SDS011;31858;46.008;8.978;2023-11-21T16:46:27;2.28;;;2.08;;
45940;SDS011;31858;46.008;8.978;2023-11-21T16:56:30;10.52;;;8.27;;
45940;SDS011;31858;46.008;8.978;2023-11-21T17:06:32;22.00;;;14.48;;
45940;SDS011;31858;46.008;8.978;2023-11-21T17:16:35;7.85;;;5.57;;
45940;SDS011;31858;46.008;8.978;2023-11-21T17:26:37;10.90;;;8.55;;
45940;SDS011;31858;46.008;8.978;2023-11-21T17:36:40;2.90;;;2.33;;
45940;SDS011;31858;46.008;8.978;2023-11-21T17:46:42;2.00;;;0.80;;
45940;SDS011;31858;46.008;8.978;2023-11-21T17:56:45;1.00;;;0.90;;
45940;SDS011;31858;46.008;8.978;2023-11-21T18:06:47;1.60;;;1.40;;
45940;SDS011;31858;46.008;8.978;2023-11-21T18:16:50;1.40;;;1.30;;
45940;SDS011;31858;46.008;8.978;2023-11-21T18:26:52;15.10;;;11.10;;
45940;SDS011;31858;46.008;8.978;2023-11-21T18:36:55;5.57;;;3.42;;
45940;SDS011;31858;46.008;8.978;2023-11-21T18:46:57;7.57;;;4.70;;
45940;SDS011;31858;46.008;8.978;2023-11-21T18:57:00;19.92;;;12.85;;
45940;SDS011;31858;46.008;8.978;2023-11-21T19:07:02;14.38;;;11.63;;
45940;SDS011;31858;46.008;8.978;2023-11-21T19:17:06;23.73;;;15.68;;
45940;SDS011;31858;46.008;8.978;2023-11-21T19:27:08;19.48;;;11.57;;
45940;SDS011;31858;46.008;8.978;2023-11-21T19:37:11;19.65;;;14.40;;
45940;SDS011;31858;46.008;8.978;2023-11-21T19:47:12;19.63;;;12.90;;
45940;SDS011;31858;46.008;8.978;2023-11-21T19:57:15;8.27;;;4.78;;
45940;SDS011;31858;46.008;8.978;2023-11-21T20:07:17;4.43;;;2.97;;
45940;SDS011;31858;46.008;8.978;2023-11-21T20:17:22;5.22;;;4.00;;
45940;SDS011;31858;46.008;8.978;2023-11-21T20:27:24;2.95;;;2.50;;
45940;SDS011;31858;46.008;8.978;2023-11-21T20:37:27;4.90;;;3.50;;
45940;SDS011;31858;46.008;8.978;2023-11-21T20:47:28;5.63;;;4.30;;
45940;SDS011;31858;46.008;8.978;2023-11-21T20:57:34;8.82;;;3.20;;
45940;SDS011;31858;46.008;8.978;2023-11-21T21:07:35;2.42;;;1.75;;
45940;SDS011;31858;46.008;8.978;2023-11-21T21:17:38;2.20;;;1.83;;
45940;SDS011;31858;46.008;8.978;2023-11-21T21:27:40;1.80;;;1.70;;
45940;SDS011;31858;46.008;8.978;2023-11-21T21:37:43;1.90;;;1.35;;
45940;SDS011;31858;46.008;8.978;2023-11-21T21:47:46;1.40;;;1.30;;
45940;SDS011;31858;46.008;8.978;2023-11-21T21:57:49;1.77;;;0.90;;
45940;SDS011;31858;46.008;8.978;2023-11-21T22:07:50;1.27;;;1.13;;
45940;SDS011;31858;46.008;8.978;2023-11-21T22:17:53;9.73;;;7.00;;
45940;SDS011;31858;46.008;8.978;2023-11-21T22:27:56;1.70;;;1.60;;
45940;SDS011;31858;46.008;8.978;2023-11-21T22:38:00;20.15;;;12.23;;
45940;SDS011;31858;46.008;8.978;2023-11-21T22:48:03;22.58;;;13.52;;
45940;SDS011;31858;46.008;8.978;2023-11-21T22:58:06;13.40;;;10.60;;
45940;SDS011;31858;46.008;8.978;2023-11-21T23:08:08;3.63;;;2.35;;
45940;SDS011;31858;46.008;8.978;2023-11-21T23:18:12;12.95;;;7.78;;
45940;SDS011;31858;46.008;8.978;2023-11-21T23:28:14;2.28;;;2.08;;
45940;SDS011;31858;46.008;8.978;2023-11-21T23:38:20;4.28;;;3.45;;
45940;SDS011;31858;46.008;8.978;2023-11-21T23:48:22;14.15;;;8.10;;
45940;SDS011;31858;46.008;8.978;2023-11-21T23:58:25;9.10;;;6.20;;
